createdAt,value
2023-03-28T00:01:14.043Z,78.85
2023-03-28T00:03:41.126Z,79.05
2023-03-28T00:06:13.834Z,78.94
2023-03-28T00:08:41.572Z,78.95
2023-03-28T00:11:18.641Z,78.54
2023-03-28T00:14:02.116Z,77.56
2023-03-28T00:16:35.500Z,77.44
2023-03-28T00:19:06.419Z,77.43
2023-03-28T00:21:46.752Z,77.27
2023-03-28T00:24:21.437Z,77.15
2023-03-28T00:26:54.387Z,77.16
2023-03-28T00:29:23.040Z,76.79
2023-03-28T00:31:55.618Z,76.68
2023-03-28T00:34:25.789Z,75.98
2023-03-28T00:36:55.056Z,76.05
2023-03-28T00:39:22.216Z,75.95
2023-03-28T00:41:49.448Z,75.91
2023-03-28T00:44:38.304Z,75.47
2023-03-28T00:47:06.363Z,76.03
2023-03-28T00:49:35.772Z,76.06
2023-03-28T00:52:07.594Z,75.60
2023-03-28T00:54:40.295Z,75.92
2023-03-28T00:57:12.916Z,76.29
2023-03-28T00:59:42.080Z,76.46
2023-03-28T01:02:09.017Z,77.19
2023-03-28T01:04:59.431Z,77.22
2023-03-28T01:07:40.901Z,76.68
2023-03-28T01:10:09.194Z,77.10
2023-03-28T01:12:36.875Z,77.26
2023-03-28T01:15:04.692Z,77.09
2023-03-28T01:17:34.268Z,77.52
2023-03-28T01:20:53.597Z,77.16
2023-03-28T01:23:32.418Z,76.68
2023-03-28T01:26:17.694Z,77.19
2023-03-28T01:29:23.701Z,77.91
2023-03-28T01:32:22.677Z,77.11
2023-03-28T01:35:45.293Z,77.28
2023-03-28T01:38:44.819Z,77.82
2023-03-28T01:41:42.418Z,78.02
2023-03-28T01:44:36.990Z,77.77
2023-03-28T01:47:16.806Z,77.29
2023-03-28T01:50:10.785Z,77.72
2023-03-28T01:52:59.659Z,78.02
2023-03-28T01:56:12.119Z,77.47
2023-03-28T01:59:15.819Z,77.75
2023-03-28T02:01:50.471Z,77.80
2023-03-28T02:04:21.467Z,78.15
2023-03-28T02:06:50.199Z,77.97
2023-03-28T02:09:24.747Z,77.84
2023-03-28T02:12:02.094Z,77.49
2023-03-28T02:14:38.698Z,77.33
2023-03-28T02:17:15.699Z,77.14
2023-03-28T02:19:59.755Z,77.46
2023-03-28T02:22:36.483Z,76.77
2023-03-28T02:25:04.154Z,75.78
2023-03-28T02:27:32.873Z,77.00
2023-03-28T02:30:00.293Z,76.90
2023-03-28T02:32:33.871Z,76.98
2023-03-28T02:35:04.445Z,75.51
2023-03-28T02:37:49.882Z,76.07
2023-03-28T02:40:41.337Z,76.86
2023-03-28T02:43:26.284Z,77.37
2023-03-28T02:46:12.614Z,76.70
2023-03-28T02:49:12.853Z,76.57
2023-03-28T02:52:00.168Z,77.18
2023-03-28T02:54:51.697Z,76.78
2023-03-28T02:57:31.463Z,76.85
2023-03-28T03:00:12.410Z,77.59
2023-03-28T03:02:51.700Z,76.77
2023-03-28T03:05:20.675Z,77.14
2023-03-28T03:07:49.826Z,77.55
2023-03-28T03:10:17.861Z,77.69
2023-03-28T03:12:45.390Z,76.64
2023-03-28T03:15:12.311Z,76.99
2023-03-28T03:17:41.695Z,76.96
2023-03-28T03:20:09.364Z,77.24
2023-03-28T03:22:43.287Z,77.30
2023-03-28T03:25:14.608Z,76.71
2023-03-28T03:27:41.711Z,76.93
2023-03-28T03:30:10.068Z,77.28
2023-03-28T03:32:38.631Z,77.20
2023-03-28T03:35:11.087Z,77.29
2023-03-28T03:37:38.011Z,76.96
2023-03-28T03:40:05.824Z,77.08
2023-03-28T03:42:37.109Z,76.69
2023-03-28T03:45:04.815Z,76.40
2023-03-28T03:47:32.230Z,77.44
2023-03-28T03:50:02.159Z,77.14
2023-03-28T03:52:28.968Z,78.25
2023-03-28T03:54:55.785Z,77.63
2023-03-28T03:57:25.008Z,77.08
2023-03-28T03:59:57.212Z,77.46
2023-03-28T04:02:24.199Z,78.36
2023-03-28T04:04:54.250Z,79.08
2023-03-28T04:07:21.300Z,79.10
2023-03-28T04:09:50.656Z,77.82
2023-03-28T04:12:18.531Z,77.91
2023-03-28T04:14:48.031Z,77.82
2023-03-28T04:17:16.027Z,77.08
2023-03-28T04:19:46.572Z,78.63
2023-03-28T04:22:13.818Z,78.75
2023-03-28T04:24:41.749Z,77.75
2023-03-28T04:27:10.885Z,79.00
2023-03-28T04:29:39.384Z,78.96
2023-03-28T04:32:12.926Z,79.28
2023-03-28T04:34:39.969Z,78.34
2023-03-28T04:37:06.891Z,78.25
2023-03-28T04:39:37.340Z,79.87
2023-03-28T04:42:08.368Z,79.25
2023-03-28T04:44:35.389Z,78.67
2023-03-28T04:47:02.284Z,78.94
2023-03-28T04:49:29.271Z,80.50
2023-03-28T04:51:58.634Z,80.20
2023-03-28T04:54:25.830Z,80.06
2023-03-28T04:56:55.949Z,80.10
2023-03-28T04:59:23.004Z,79.24
2023-03-28T05:01:52.449Z,79.09
2023-03-28T05:04:26.667Z,79.45
2023-03-28T05:06:56.320Z,80.53
2023-03-28T05:09:26.425Z,81.84
2023-03-28T05:11:53.403Z,80.75
2023-03-28T05:14:20.767Z,80.78
2023-03-28T05:16:47.707Z,81.16
2023-03-28T05:19:14.689Z,80.57
2023-03-28T05:21:41.605Z,80.55
2023-03-28T05:24:13.161Z,81.81
2023-03-28T05:26:40.257Z,81.42
2023-03-28T05:29:09.752Z,81.33
2023-03-28T05:31:39.289Z,81.46
2023-03-28T05:34:11.112Z,81.09
2023-03-28T05:36:38.053Z,81.12
2023-03-28T05:39:05.231Z,80.17
2023-03-28T05:41:32.237Z,79.73
2023-03-28T05:43:59.065Z,80.42
2023-03-28T05:46:26.020Z,80.21
2023-03-28T05:48:52.963Z,79.75
2023-03-28T05:51:20.014Z,80.60
2023-03-28T05:53:49.440Z,78.66
2023-03-28T05:56:16.313Z,78.36
2023-03-28T05:58:43.742Z,76.80
2023-03-28T06:01:13.860Z,77.56
2023-03-28T06:03:42.685Z,78.11
2023-03-28T06:06:09.805Z,79.02
2023-03-28T06:08:39.308Z,79.06
2023-03-28T06:11:06.846Z,78.35
2023-03-28T06:13:34.216Z,78.02
2023-03-28T06:16:01.056Z,78.34
2023-03-28T06:18:32.514Z,77.68
2023-03-28T06:21:02.259Z,79.57
2023-03-28T06:23:31.868Z,80.66
2023-03-28T06:26:02.316Z,81.58
2023-03-28T06:28:31.731Z,79.85
2023-03-28T06:30:59.065Z,78.06
2023-03-28T06:33:26.279Z,72.50
2023-03-28T06:35:53.244Z,68.97
2023-03-28T06:38:23.339Z,63.41
2023-03-28T06:40:55.218Z,60.47
2023-03-28T06:43:24.347Z,58.64
2023-03-28T06:45:56.390Z,56.76
2023-03-28T06:48:33.059Z,52.12
2023-03-28T06:51:01.703Z,52.03
2023-03-28T06:53:29.107Z,50.44
2023-03-28T06:55:59.825Z,47.39
2023-03-28T06:58:28.996Z,48.57
2023-03-28T07:00:59.539Z,50.05
2023-03-28T07:03:30.356Z,52.39
2023-03-28T07:05:57.956Z,52.28
2023-03-28T07:08:25.444Z,48.71
2023-03-28T07:10:52.375Z,46.27
2023-03-28T07:13:19.294Z,43.53
2023-03-28T07:15:46.244Z,41.28
2023-03-28T07:18:13.224Z,40.75
2023-03-28T07:20:41.596Z,40.94
2023-03-28T07:23:08.696Z,42.50
2023-03-28T07:25:38.061Z,41.03
2023-03-28T07:28:04.939Z,37.94
2023-03-28T07:30:33.997Z,36.88
2023-03-28T07:33:12.993Z,37.53
2023-03-28T07:35:45.752Z,39.59
2023-03-28T07:38:14.787Z,41.55
2023-03-28T07:40:41.685Z,45.17
2023-03-28T07:43:10.835Z,47.91
2023-03-28T07:45:40.041Z,46.67
2023-03-28T07:48:07.953Z,41.67
2023-03-28T07:50:36.567Z,39.13
2023-03-28T07:53:05.861Z,36.81
2023-03-28T07:55:39.381Z,37.59
2023-03-28T07:58:15.588Z,38.73
2023-03-28T08:00:45.478Z,37.18
2023-03-28T08:03:16.108Z,33.64
2023-03-28T08:05:51.963Z,31.56
2023-03-28T08:08:20.918Z,31.74
2023-03-28T08:10:54.634Z,31.70
2023-03-28T08:13:21.524Z,29.66
2023-03-28T08:15:55.268Z,28.50
2023-03-28T08:18:25.210Z,27.86
2023-03-28T08:21:03.113Z,27.78
2023-03-28T08:23:30.701Z,26.77
2023-03-28T08:26:06.163Z,26.61
2023-03-28T08:28:37.709Z,26.71
2023-03-28T08:31:16.636Z,25.22
2023-03-28T08:33:52.590Z,26.56
2023-03-28T08:36:25.083Z,25.44
2023-03-28T08:38:53.330Z,25.12
2023-03-28T08:41:57.511Z,24.22
2023-03-28T08:45:08.857Z,23.97
2023-03-28T08:48:00.528Z,24.67
2023-03-28T08:50:34.144Z,23.73
2023-03-28T08:53:02.712Z,22.29
2023-03-28T08:55:43.333Z,22.41
2023-03-28T08:58:23.663Z,22.44
2023-03-28T09:00:54.253Z,21.03
2023-03-28T09:03:25.205Z,22.49
2023-03-28T09:06:02.436Z,22.66
2023-03-28T09:09:13.093Z,21.58
2023-03-28T09:12:15.727Z,21.48
2023-03-28T09:15:07.033Z,24.02
2023-03-28T09:18:03.837Z,24.62
2023-03-28T09:20:41.123Z,25.99
2023-03-28T09:23:42.477Z,25.29
2023-03-28T09:26:26.068Z,22.81
2023-03-28T09:29:08.986Z,25.66
2023-03-28T09:31:46.247Z,28.98
2023-03-28T09:34:22.933Z,30.27
2023-03-28T09:36:55.306Z,26.85
2023-03-28T09:39:38.556Z,24.60
2023-03-28T09:42:27.295Z,22.00
2023-03-28T09:45:12.043Z,19.81
2023-03-28T09:47:39.734Z,21.87
2023-03-28T09:50:13.738Z,21.17
2023-03-28T09:52:41.506Z,24.03
2023-03-28T09:55:27.266Z,26.82
2023-03-28T09:58:09.189Z,29.09
2023-03-28T10:00:47.668Z,30.55
2023-03-28T10:03:32.495Z,31.11
2023-03-28T10:06:18.141Z,32.37
2023-03-28T10:08:45.991Z,33.95
2023-03-28T10:11:15.283Z,34.32
2023-03-28T10:13:56.522Z,34.53
2023-03-28T10:16:32.340Z,35.69
2023-03-28T10:19:02.387Z,36.14
2023-03-28T10:21:32.521Z,37.67
2023-03-28T10:24:07.450Z,38.82
2023-03-28T10:26:39.249Z,39.02
2023-03-28T10:29:12.366Z,39.38
2023-03-28T10:31:40.240Z,40.38
2023-03-28T10:34:28.237Z,39.77
2023-03-28T10:36:56.997Z,37.89
2023-03-28T10:39:28.999Z,35.79
2023-03-28T10:41:58.670Z,37.78
2023-03-28T10:44:37.513Z,40.11
2023-03-28T10:47:13.782Z,42.04
2023-03-28T10:49:52.870Z,44.46
2023-03-28T10:52:22.605Z,45.51
2023-03-28T10:55:23.924Z,47.03
2023-03-28T10:58:18.181Z,49.61
2023-03-28T11:01:04.809Z,48.21
2023-03-28T11:04:41.467Z,47.56
2023-03-28T11:07:17.091Z,47.18
2023-03-28T11:09:56.318Z,45.49
2023-03-28T11:12:54.649Z,41.83
2023-03-28T11:15:57.028Z,39.94
2023-03-28T11:18:46.286Z,38.82
2023-03-28T11:21:31.382Z,38.18
2023-03-28T11:24:19.512Z,38.09
2023-03-28T11:27:31.839Z,39.40
2023-03-28T11:30:15.798Z,42.13
2023-03-28T11:33:02.822Z,42.79
2023-03-28T11:35:41.110Z,44.73
2023-03-28T11:38:39.944Z,44.94
2023-03-28T11:41:15.721Z,46.28
2023-03-28T11:43:58.362Z,45.90
2023-03-28T11:46:38.141Z,47.46
2023-03-28T11:49:26.194Z,47.67
2023-03-28T11:52:35.500Z,46.47
2023-03-28T11:55:06.627Z,47.08
2023-03-28T11:58:03.770Z,48.10
2023-03-28T12:01:08.683Z,48.87
2023-03-28T12:04:10.440Z,49.02
2023-03-28T12:07:03.172Z,49.90
2023-03-28T12:10:19.588Z,48.60
2023-03-28T12:13:01.744Z,49.21
2023-03-28T12:15:45.225Z,48.83
2023-03-28T12:18:41.447Z,49.02
2023-03-28T12:21:34.718Z,49.37
2023-03-28T12:24:15.904Z,48.98
2023-03-28T12:27:25.452Z,49.67
2023-03-28T12:30:07.228Z,48.91
2023-03-28T12:33:14.463Z,48.75
2023-03-28T12:35:50.143Z,46.49
2023-03-28T12:38:40.488Z,46.65
2023-03-28T12:41:19.244Z,45.21
2023-03-28T12:44:24.495Z,45.52
2023-03-28T12:47:17.061Z,48.30
2023-03-28T12:49:52.526Z,49.71
2023-03-28T12:52:37.951Z,50.62
2023-03-28T12:55:17.436Z,52.98
2023-03-28T12:57:46.952Z,54.00
2023-03-28T13:00:32.754Z,54.99
2023-03-28T13:03:40.073Z,56.35
2023-03-28T13:06:30.700Z,55.71
2023-03-28T13:09:31.664Z,56.65
2023-03-28T13:12:20.297Z,55.99
2023-03-28T13:15:06.699Z,56.87
2023-03-28T13:17:37.801Z,56.51
2023-03-28T13:20:26.098Z,56.21
2023-03-28T13:22:58.592Z,58.55
2023-03-28T13:25:32.490Z,57.19
2023-03-28T13:28:24.188Z,56.40
2023-03-28T13:31:18.511Z,56.34
2023-03-28T13:34:01.751Z,56.31
2023-03-28T13:36:34.084Z,56.94
2023-03-28T13:39:27.510Z,57.92
2023-03-28T13:41:58.116Z,57.76
2023-03-28T13:44:39.780Z,58.26
2023-03-28T13:47:14.110Z,59.21
2023-03-28T13:49:53.238Z,58.22
2023-03-28T13:52:23.564Z,56.79
2023-03-28T13:54:59.648Z,56.76
2023-03-28T13:57:29.785Z,56.00
2023-03-28T14:00:06.904Z,55.10
2023-03-28T14:02:47.856Z,52.10
2023-03-28T14:05:27.542Z,52.84
2023-03-28T14:08:14.326Z,51.80
2023-03-28T14:10:46.111Z,52.73
2023-03-28T14:13:19.559Z,49.65
2023-03-28T14:15:46.968Z,50.56
2023-03-28T14:18:34.996Z,49.63
2023-03-28T14:21:02.658Z,49.72
2023-03-28T14:23:42.475Z,50.38
2023-03-28T14:26:19.151Z,50.64
2023-03-28T14:28:47.128Z,50.00
2023-03-28T14:31:31.423Z,49.79
2023-03-28T14:34:16.399Z,49.04
2023-03-28T14:37:00.928Z,50.38
2023-03-28T14:39:34.090Z,50.59
2023-03-28T14:42:08.415Z,49.41
2023-03-28T14:44:41.311Z,48.03
2023-03-28T14:47:14.858Z,46.94
2023-03-28T14:49:42.199Z,46.23
2023-03-28T14:52:25.655Z,46.18
2023-03-28T14:54:53.039Z,45.26
2023-03-28T14:57:22.752Z,46.49
2023-03-28T14:59:52.488Z,47.48
2023-03-28T15:02:39.481Z,47.53
2023-03-28T15:05:10.461Z,48.14
2023-03-28T15:07:42.168Z,48.01
2023-03-28T15:10:18.398Z,47.35
2023-03-28T15:12:47.907Z,45.64
2023-03-28T15:15:24.966Z,45.48
2023-03-28T15:17:59.860Z,45.55
2023-03-28T15:20:37.330Z,46.51
2023-03-28T15:23:12.377Z,44.99
2023-03-28T15:25:39.298Z,44.35
2023-03-28T15:28:10.588Z,43.64
2023-03-28T15:30:43.860Z,43.87
2023-03-28T15:33:26.240Z,44.08
2023-03-28T15:36:32.301Z,45.08
2023-03-28T15:39:17.162Z,47.91
2023-03-28T15:41:48.894Z,48.99
2023-03-28T15:44:39.544Z,47.75
2023-03-28T15:47:21.367Z,48.56
2023-03-28T15:49:50.779Z,47.94
2023-03-28T15:52:25.665Z,49.01
2023-03-28T15:54:56.635Z,49.60
2023-03-28T15:57:30.194Z,49.50
2023-03-28T15:59:58.738Z,49.36
2023-03-28T16:02:37.533Z,48.33
2023-03-28T16:05:17.846Z,47.48
2023-03-28T16:07:52.491Z,47.28
2023-03-28T16:10:33.058Z,47.32
2023-03-28T16:13:08.819Z,47.66
2023-03-28T16:15:41.553Z,47.55
2023-03-28T16:18:09.064Z,45.44
2023-03-28T16:20:43.332Z,43.63
2023-03-28T16:23:14.602Z,43.95
2023-03-28T16:25:49.165Z,41.82
2023-03-28T16:28:21.277Z,40.71
2023-03-28T16:31:03.825Z,40.07
2023-03-28T16:33:37.426Z,39.48
2023-03-28T16:36:05.500Z,40.12
2023-03-28T16:38:41.468Z,41.08
2023-03-28T16:41:12.498Z,39.14
2023-03-28T16:43:42.956Z,39.73
2023-03-28T16:46:13.093Z,40.31
2023-03-28T16:48:42.730Z,40.37
2023-03-28T16:51:10.333Z,41.22
2023-03-28T16:53:45.064Z,41.76
2023-03-28T16:56:18.788Z,42.27
2023-03-28T16:58:53.755Z,42.52
2023-03-28T17:01:30.894Z,41.94
2023-03-28T17:04:04.090Z,42.02
2023-03-28T17:06:37.580Z,42.24
2023-03-28T17:09:10.073Z,41.80
2023-03-28T17:11:37.984Z,42.71
2023-03-28T17:14:11.071Z,42.70
2023-03-28T17:16:40.851Z,42.89
2023-03-28T17:19:13.847Z,43.03
2023-03-28T17:21:41.129Z,42.97
2023-03-28T17:24:11.583Z,43.46
2023-03-28T17:26:41.474Z,43.64
2023-03-28T17:29:12.159Z,43.47
2023-03-28T17:31:41.884Z,43.78
2023-03-28T17:34:10.188Z,43.89
2023-03-28T17:36:37.896Z,44.41
2023-03-28T17:39:04.891Z,44.36
2023-03-28T17:41:32.276Z,44.58
2023-03-28T17:43:59.887Z,44.84
2023-03-28T17:46:29.167Z,44.46
2023-03-28T17:48:56.112Z,45.60
2023-03-28T17:51:23.221Z,45.79
2023-03-28T17:53:53.311Z,46.44
2023-03-28T17:56:24.175Z,46.61
2023-03-28T17:58:53.525Z,46.09
2023-03-28T18:01:23.271Z,45.70
2023-03-28T18:03:50.335Z,45.20
2023-03-28T18:06:19.902Z,45.26
2023-03-28T18:08:47.394Z,45.54
2023-03-28T18:11:20.094Z,45.85
2023-03-28T18:13:50.125Z,45.67
2023-03-28T18:16:19.562Z,46.03
2023-03-28T18:18:49.292Z,45.87
2023-03-28T18:21:20.188Z,45.85
2023-03-28T18:23:49.301Z,46.08
2023-03-28T18:26:17.160Z,46.08
2023-03-28T18:28:45.585Z,46.58
2023-03-28T18:31:18.077Z,46.15
2023-03-28T18:33:46.882Z,46.69
2023-03-28T18:36:15.279Z,46.61
2023-03-28T18:38:46.977Z,47.04
2023-03-28T18:41:17.707Z,46.38
2023-03-28T18:43:46.298Z,47.55
2023-03-28T18:46:16.177Z,48.33
2023-03-28T18:48:47.328Z,47.70
2023-03-28T18:51:14.364Z,48.97
2023-03-28T18:53:45.473Z,48.54
2023-03-28T18:56:17.351Z,47.62
2023-03-28T18:58:47.457Z,48.17
2023-03-28T19:01:19.024Z,47.72
2023-03-28T19:03:48.518Z,47.70
2023-03-28T19:06:17.346Z,48.75
2023-03-28T19:08:45.189Z,48.69
2023-03-28T19:11:17.448Z,48.31
2023-03-28T19:13:46.213Z,48.32
2023-03-28T19:16:21.759Z,48.29
2023-03-28T19:18:48.994Z,48.71
2023-03-28T19:21:19.366Z,48.04
2023-03-28T19:23:49.424Z,48.71
2023-03-28T19:26:19.414Z,48.66
2023-03-28T19:28:48.236Z,49.84
2023-03-28T19:31:17.472Z,49.21
2023-03-28T19:33:45.537Z,50.03
2023-03-28T19:36:14.018Z,50.58
2023-03-28T19:38:42.077Z,50.73
2023-03-28T19:41:23.813Z,49.89
2023-03-28T19:43:52.304Z,51.07
2023-03-28T19:46:33.852Z,50.77
2023-03-28T19:49:06.789Z,50.97
2023-03-28T19:51:36.299Z,51.50
2023-03-28T19:54:07.030Z,51.39
2023-03-28T19:56:35.079Z,51.34
2023-03-28T19:59:03.814Z,52.45
2023-03-28T20:01:32.198Z,52.73
2023-03-28T20:04:02.480Z,53.14
2023-03-28T20:06:31.163Z,52.02
2023-03-28T20:09:02.148Z,52.75
2023-03-28T20:11:34.394Z,52.23
2023-03-28T20:14:02.498Z,52.73
2023-03-28T20:16:33.172Z,54.11
2023-03-28T20:19:01.592Z,52.94
2023-03-28T20:21:30.160Z,53.60
2023-03-28T20:23:59.111Z,53.19
2023-03-28T20:26:28.252Z,53.48
2023-03-28T20:29:00.084Z,53.29
2023-03-28T20:31:31.734Z,52.89
2023-03-28T20:34:01.816Z,53.97
2023-03-28T20:36:28.960Z,54.54
2023-03-28T20:38:56.487Z,54.39
2023-03-28T20:41:24.510Z,53.35
2023-03-28T20:43:53.210Z,53.44
2023-03-28T20:46:23.659Z,53.29
2023-03-28T20:48:56.672Z,52.57
2023-03-28T20:51:23.832Z,52.97
2023-03-28T20:54:02.288Z,53.03
2023-03-28T20:56:31.681Z,52.90
2023-03-28T20:58:59.955Z,52.67
2023-03-28T21:01:32.778Z,52.68
2023-03-28T21:04:01.998Z,52.89
2023-03-28T21:06:34.182Z,52.19
2023-03-28T21:09:07.140Z,53.86
2023-03-28T21:11:37.519Z,53.50
2023-03-28T21:14:10.573Z,53.28
2023-03-28T21:16:40.933Z,53.31
2023-03-28T21:19:10.448Z,52.85
2023-03-28T21:21:37.616Z,54.12
2023-03-28T21:24:07.568Z,53.54
2023-03-28T21:26:34.522Z,54.83
2023-03-28T21:29:01.688Z,54.55
2023-03-28T21:31:29.589Z,53.93
2023-03-28T21:33:59.844Z,54.73
2023-03-28T21:36:28.284Z,54.84
2023-03-28T21:38:58.937Z,54.77
2023-03-28T21:41:28.736Z,55.74
2023-03-28T21:43:56.658Z,55.84
2023-03-28T21:46:24.068Z,55.76
2023-03-28T21:48:53.383Z,56.17
2023-03-28T21:51:20.664Z,56.49
2023-03-28T21:53:50.826Z,56.37
2023-03-28T21:56:21.464Z,56.53
2023-03-28T21:58:48.806Z,57.41
2023-03-28T22:01:18.308Z,57.55
2023-03-28T22:03:49.519Z,56.71
2023-03-28T22:06:18.651Z,56.61
2023-03-28T22:08:51.733Z,57.02
2023-03-28T22:11:30.098Z,57.34
2023-03-28T22:14:04.954Z,57.06
2023-03-28T22:16:40.122Z,57.57
2023-03-28T22:19:09.820Z,57.32
2023-03-28T22:21:37.627Z,57.19
2023-03-28T22:24:10.227Z,57.34
2023-03-28T22:26:37.161Z,58.32
2023-03-28T22:29:05.137Z,57.58
2023-03-28T22:31:32.376Z,58.12
2023-03-28T22:33:59.426Z,57.97
2023-03-28T22:36:29.259Z,58.12
2023-03-28T22:39:03.337Z,58.00
2023-03-28T22:41:33.216Z,58.49
2023-03-28T22:44:00.282Z,58.52
2023-03-28T22:46:30.030Z,59.03
2023-03-28T22:49:00.601Z,59.01
2023-03-28T22:51:28.351Z,58.83
2023-03-28T22:54:01.787Z,60.44
2023-03-28T22:56:31.357Z,60.16
2023-03-28T22:59:01.785Z,59.68
2023-03-28T23:01:28.956Z,59.60
2023-03-28T23:03:58.703Z,59.18
2023-03-28T23:06:27.147Z,59.01
2023-03-28T23:08:54.107Z,59.67
2023-03-28T23:11:21.493Z,59.28
2023-03-28T23:13:48.569Z,59.18
2023-03-28T23:16:15.621Z,58.88
2023-03-28T23:18:43.382Z,58.69
2023-03-28T23:21:13.240Z,59.83
2023-03-28T23:23:46.492Z,60.94
2023-03-28T23:26:14.443Z,60.45
2023-03-28T23:28:41.592Z,60.08
2023-03-28T23:31:12.986Z,59.86
2023-03-28T23:33:40.297Z,59.91
2023-03-28T23:36:10.316Z,60.55
2023-03-28T23:38:40.525Z,59.37
2023-03-28T23:41:08.288Z,59.95
2023-03-28T23:43:35.545Z,59.83
2023-03-28T23:46:05.790Z,60.00
2023-03-28T23:48:32.883Z,60.60
2023-03-28T23:51:02.529Z,60.58
2023-03-28T23:53:30.349Z,61.06
2023-03-28T23:55:57.254Z,60.60
2023-03-28T23:58:24.217Z,60.18
